Weather at Nice-Côte d'Azur Airport

Public forecast

Using degrees Celsius for public forecast. Weather courtesy of forecast.io.

Current aviation weather report (METAR) for Nice-Côte d'Azur Airport

Report is more than 6 hours old.

Retrieved 2022/09/17 19:00 UTC (13 days ago):

LFMN 171900Z 19007KT CAVOK 23/09 Q1011 BECMG FM2000 34010KT

Aviation forecast (TAF) for Nice-Côte d'Azur Airport

Forecast is more than 12 hours old.

Retrieved 2022/09/17 15:26 UTC (13 days ago):

TAF LFMN 171400Z 1715/1821 21015KT CAVOK BECMG 1719/1722 33010KT BECMG 1808/1810 16010KT BECMG 1814/1816 22010KT BECMG 1819/1821 34010KT